首页
METAR-TAF:

METAR-TAF

机场 :

Killarney, 爱尔兰

纬度: 52-10-51N, 经度: 9-31-26W, 海拔: 34米

当前天气观测

该预报发布于37分钟前的06:30 UTC
风速2节,风向多变
温度 8°C
湿度 87%
气压 1016 hPa
能见度10公里或以上
少量云层高于3200英尺
多云层高于4900英尺

METAR: EIKY 200630Z VRB02KT 9999 FEW032 BKN049 08/06 Q1016

时间: 08:07 (07:07 UTC)

预报

该预报发布于2小时和7分钟前的05:00 UTC
预报有效从20日的 06点(UTC)到 20日的 15点(UTC)
风速10节,风向
能见度10公里或以上
多云层高于4500英尺
几率 30% :
短暂存在
从 20日的 06点(UTC)到 20日的 08点(UTC)
多云层高于1300英尺
成为
从 20日的 08点(UTC)到 20日的 10点(UTC)
风速12节,风向北转东北

TAF: EIKY 200500Z 2006/2015 35010KT 9999 BKN045 PROB30 TEMPO 2006/2008 BKN013 BECMG 2008/2010 02012KT

超过4000个机场的气象观测和天气预报(METAR&TAF报告)。

可查询的气象台以黄色和红色小点在地图上表示。

将鼠标移到小点上方,可查看气象台名称。

然后点击查看天气观测和预报。

如需切换地图:点击带黑十字的绿色按钮放大地图;点击带横线的绿色按钮缩小地图;或者点击绿色箭头查看邻近地区的地图。


METAR-TAF: